sensor_id;sensor_type;location;lat;lon;timestamp;temperature;humidity
41481;DHT22;27217;51.220;5.308;2022-12-18T00:01:18;-4.10;99.90
41481;DHT22;27217;51.220;5.308;2022-12-18T00:03:44;-4.30;99.90
41481;DHT22;27217;51.220;5.308;2022-12-18T00:06:10;-4.40;99.90
41481;DHT22;27217;51.220;5.308;2022-12-18T00:08:37;-4.30;99.90
41481;DHT22;27217;51.220;5.308;2022-12-18T00:11:07;-4.10;99.90
41481;DHT22;27217;51.220;5.308;2022-12-18T00:13:34;-4.20;99.90
41481;DHT22;27217;51.220;5.308;2022-12-18T00:16:06;-4.40;99.90
41481;DHT22;27217;51.220;5.308;2022-12-18T00:18:32;-4.20;99.90
41481;DHT22;27217;51.220;5.308;2022-12-18T00:20:59;-4.10;99.90
41481;DHT22;27217;51.220;5.308;2022-12-18T00:23:26;-4.30;99.90
41481;DHT22;27217;51.220;5.308;2022-12-18T00:25:52;-4.20;99.90
41481;DHT22;27217;51.220;5.308;2022-12-18T00:28:18;-4.30;99.90
41481;DHT22;27217;51.220;5.308;2022-12-18T00:30:44;-4.40;99.90
41481;DHT22;27217;51.220;5.308;2022-12-18T00:33:11;-4.40;99.90
41481;DHT22;27217;51.220;5.308;2022-12-18T00:35:37;-4.40;99.90
41481;DHT22;27217;51.220;5.308;2022-12-18T00:38:02;-4.50;99.90
41481;DHT22;27217;51.220;5.308;2022-12-18T00:40:28;-4.60;99.90
41481;DHT22;27217;51.220;5.308;2022-12-18T00:42:55;-4.70;99.90
41481;DHT22;27217;51.220;5.308;2022-12-18T00:45:21;-4.80;99.90
41481;DHT22;27217;51.220;5.308;2022-12-18T00:47:47;-4.70;99.90
41481;DHT22;27217;51.220;5.308;2022-12-18T00:50:13;-4.80;99.90
41481;DHT22;27217;51.220;5.308;2022-12-18T00:52:39;-4.70;99.90
41481;DHT22;27217;51.220;5.308;2022-12-18T00:55:05;-4.80;99.90
41481;DHT22;27217;51.220;5.308;2022-12-18T00:57:31;-4.80;99.90
41481;DHT22;27217;51.220;5.308;2022-12-18T00:59:56;-4.80;99.90
41481;DHT22;27217;51.220;5.308;2022-12-18T01:02:23;-4.80;99.90
41481;DHT22;27217;51.220;5.308;2022-12-18T01:04:48;-4.70;99.90
41481;DHT22;27217;51.220;5.308;2022-12-18T01:07:15;-4.80;99.90
41481;DHT22;27217;51.220;5.308;2022-12-18T01:09:40;-4.80;99.90
41481;DHT22;27217;51.220;5.308;2022-12-18T01:12:07;-4.90;99.90
41481;DHT22;27217;51.220;5.308;2022-12-18T01:14:33;-4.90;99.90
41481;DHT22;27217;51.220;5.308;2022-12-18T01:16:59;-4.90;99.90
41481;DHT22;27217;51.220;5.308;2022-12-18T01:19:25;-4.90;99.90
41481;DHT22;27217;51.220;5.308;2022-12-18T01:21:50;-4.90;99.90
41481;DHT22;27217;51.220;5.308;2022-12-18T01:24:16;-4.80;99.90
41481;DHT22;27217;51.220;5.308;2022-12-18T01:26:42;-4.80;99.90
41481;DHT22;27217;51.220;5.308;2022-12-18T01:29:08;-4.80;99.90
41481;DHT22;27217;51.220;5.308;2022-12-18T01:31:34;-4.60;99.90
41481;DHT22;27217;51.220;5.308;2022-12-18T01:34:01;-4.50;99.90
41481;DHT22;27217;51.220;5.308;2022-12-18T01:36:30;-4.70;99.90
41481;DHT22;27217;51.220;5.308;2022-12-18T01:38:58;-4.80;99.90
41481;DHT22;27217;51.220;5.308;2022-12-18T01:41:27;-4.90;99.90
41481;DHT22;27217;51.220;5.308;2022-12-18T01:47:30;-4.70;99.90
41481;DHT22;27217;51.220;5.308;2022-12-18T01:49:58;-4.80;99.90
41481;DHT22;27217;51.220;5.308;2022-12-18T01:52:29;-4.80;99.90
41481;DHT22;27217;51.220;5.308;2022-12-18T01:54:56;-4.90;99.90
41481;DHT22;27217;51.220;5.308;2022-12-18T01:57:23;-5.10;99.90
41481;DHT22;27217;51.220;5.308;2022-12-18T01:59:52;-5.20;99.90
41481;DHT22;27217;51.220;5.308;2022-12-18T02:02:20;-5.50;99.90
41481;DHT22;27217;51.220;5.308;2022-12-18T02:04:46;-5.40;99.90
41481;DHT22;27217;51.220;5.308;2022-12-18T02:07:23;-5.10;99.90
41481;DHT22;27217;51.220;5.308;2022-12-18T02:12:24;-5.20;99.90
41481;DHT22;27217;51.220;5.308;2022-12-18T02:15:00;-5.20;99.90
41481;DHT22;27217;51.220;5.308;2022-12-18T02:29:10;-4.90;99.90
41481;DHT22;27217;51.220;5.308;2022-12-18T02:31:52;-5.00;99.90
41481;DHT22;27217;51.220;5.308;2022-12-18T02:34:22;-5.00;99.90
41481;DHT22;27217;51.220;5.308;2022-12-18T02:36:50;-5.00;99.90
41481;DHT22;27217;51.220;5.308;2022-12-18T02:39:17;-5.20;99.90
41481;DHT22;27217;51.220;5.308;2022-12-18T02:41:46;-5.30;99.90
41481;DHT22;27217;51.220;5.308;2022-12-18T02:44:14;-5.00;99.90
41481;DHT22;27217;51.220;5.308;2022-12-18T02:46:59;-5.10;99.90
41481;DHT22;27217;51.220;5.308;2022-12-18T02:49:53;-5.30;99.90
41481;DHT22;27217;51.220;5.308;2022-12-18T02:55:33;-5.30;99.90
41481;DHT22;27217;51.220;5.308;2022-12-18T02:58:13;-5.40;99.90
41481;DHT22;27217;51.220;5.308;2022-12-18T03:01:05;-5.50;99.90
41481;DHT22;27217;51.220;5.308;2022-12-18T03:03:47;-5.50;99.90
41481;DHT22;27217;51.220;5.308;2022-12-18T03:06:29;-5.60;99.90
41481;DHT22;27217;51.220;5.308;2022-12-18T03:09:06;-5.50;99.90
41481;DHT22;27217;51.220;5.308;2022-12-18T03:11:34;-5.30;99.90
41481;DHT22;27217;51.220;5.308;2022-12-18T03:14:21;-5.20;99.90
41481;DHT22;27217;51.220;5.308;2022-12-18T03:16:52;-5.40;99.90
41481;DHT22;27217;51.220;5.308;2022-12-18T03:19:22;-5.20;99.90
41481;DHT22;27217;51.220;5.308;2022-12-18T03:21:53;-5.40;99.90
41481;DHT22;27217;51.220;5.308;2022-12-18T03:24:21;-5.20;99.90
41481;DHT22;27217;51.220;5.308;2022-12-18T03:26:52;-5.10;99.90
41481;DHT22;27217;51.220;5.308;2022-12-18T03:29:25;-5.20;99.90
41481;DHT22;27217;51.220;5.308;2022-12-18T03:31:55;-5.10;99.90
41481;DHT22;27217;51.220;5.308;2022-12-18T03:34:34;-5.10;99.90
41481;DHT22;27217;51.220;5.308;2022-12-18T03:37:03;-5.10;99.90
41481;DHT22;27217;51.220;5.308;2022-12-18T03:39:29;-5.20;99.90
41481;DHT22;27217;51.220;5.308;2022-12-18T03:42:15;-5.30;99.90
41481;DHT22;27217;51.220;5.308;2022-12-18T03:47:27;-5.40;99.90
41481;DHT22;27217;51.220;5.308;2022-12-18T03:50:17;-5.40;99.90
41481;DHT22;27217;51.220;5.308;2022-12-18T03:53:06;-5.30;99.90
41481;DHT22;27217;51.220;5.308;2022-12-18T03:55:34;-5.40;99.90
41481;DHT22;27217;51.220;5.308;2022-12-18T03:58:01;-5.50;99.90
41481;DHT22;27217;51.220;5.308;2022-12-18T04:00:29;-5.30;99.90
41481;DHT22;27217;51.220;5.308;2022-12-18T04:02:57;-5.50;99.90
41481;DHT22;27217;51.220;5.308;2022-12-18T04:05:26;-5.50;99.90
41481;DHT22;27217;51.220;5.308;2022-12-18T04:07:55;-5.30;99.90
41481;DHT22;27217;51.220;5.308;2022-12-18T04:10:21;-5.40;99.90
41481;DHT22;27217;51.220;5.308;2022-12-18T04:12:47;-5.50;99.90
41481;DHT22;27217;51.220;5.308;2022-12-18T04:15:13;-5.50;99.90
41481;DHT22;27217;51.220;5.308;2022-12-18T04:17:46;-5.60;99.90
41481;DHT22;27217;51.220;5.308;2022-12-18T04:20:13;-5.60;99.90
41481;DHT22;27217;51.220;5.308;2022-12-18T04:22:39;-5.60;99.90
41481;DHT22;27217;51.220;5.308;2022-12-18T04:25:05;-5.70;99.90
41481;DHT22;27217;51.220;5.308;2022-12-18T04:27:31;-5.50;99.90
41481;DHT22;27217;51.220;5.308;2022-12-18T04:29:57;-5.50;99.90
41481;DHT22;27217;51.220;5.308;2022-12-18T04:32:22;-5.50;99.90
41481;DHT22;27217;51.220;5.308;2022-12-18T04:34:48;-5.70;99.90
41481;DHT22;27217;51.220;5.308;2022-12-18T04:37:14;-5.70;99.90
41481;DHT22;27217;51.220;5.308;2022-12-18T04:39:40;-5.60;99.90
41481;DHT22;27217;51.220;5.308;2022-12-18T04:42:06;-5.50;99.90
41481;DHT22;27217;51.220;5.308;2022-12-18T04:44:32;-5.60;99.90
41481;DHT22;27217;51.220;5.308;2022-12-18T04:46:58;-5.60;99.90
41481;DHT22;27217;51.220;5.308;2022-12-18T04:49:24;-5.60;99.90
41481;DHT22;27217;51.220;5.308;2022-12-18T04:51:51;-5.60;99.90
41481;DHT22;27217;51.220;5.308;2022-12-18T04:54:18;-5.60;99.90
41481;DHT22;27217;51.220;5.308;2022-12-18T04:56:44;-5.70;99.90
41481;DHT22;27217;51.220;5.308;2022-12-18T04:59:10;-5.80;99.90
41481;DHT22;27217;51.220;5.308;2022-12-18T05:01:36;-5.80;99.90
41481;DHT22;27217;51.220;5.308;2022-12-18T05:04:02;-5.80;99.90
41481;DHT22;27217;51.220;5.308;2022-12-18T05:06:28;-5.80;99.90
41481;DHT22;27217;51.220;5.308;2022-12-18T05:08:54;-5.70;99.90
41481;DHT22;27217;51.220;5.308;2022-12-18T05:11:20;-5.70;99.90
41481;DHT22;27217;51.220;5.308;2022-12-18T05:13:46;-5.60;99.90
41481;DHT22;27217;51.220;5.308;2022-12-18T05:16:13;-5.50;99.90
41481;DHT22;27217;51.220;5.308;2022-12-18T05:18:40;-5.30;99.90
41481;DHT22;27217;51.220;5.308;2022-12-18T05:21:06;-5.20;99.90
41481;DHT22;27217;51.220;5.308;2022-12-18T05:23:32;-5.30;99.90
41481;DHT22;27217;51.220;5.308;2022-12-18T05:26:02;-5.30;99.90
41481;DHT22;27217;51.220;5.308;2022-12-18T05:28:30;-5.20;99.90
41481;DHT22;27217;51.220;5.308;2022-12-18T05:30:58;-5.30;99.90
41481;DHT22;27217;51.220;5.308;2022-12-18T05:33:26;-5.50;99.90
41481;DHT22;27217;51.220;5.308;2022-12-18T05:35:53;-5.60;99.90
41481;DHT22;27217;51.220;5.308;2022-12-18T05:38:21;-5.70;99.90
41481;DHT22;27217;51.220;5.308;2022-12-18T05:40:48;-5.60;99.90
41481;DHT22;27217;51.220;5.308;2022-12-18T05:43:15;-5.60;99.90
41481;DHT22;27217;51.220;5.308;2022-12-18T05:45:42;-5.60;99.90
41481;DHT22;27217;51.220;5.308;2022-12-18T05:48:08;-5.60;99.90
41481;DHT22;27217;51.220;5.308;2022-12-18T05:50:37;-5.40;99.90
41481;DHT22;27217;51.220;5.308;2022-12-18T05:53:04;-5.40;99.90
41481;DHT22;27217;51.220;5.308;2022-12-18T05:55:38;-5.40;99.90
41481;DHT22;27217;51.220;5.308;2022-12-18T05:58:06;-5.50;99.90
41481;DHT22;27217;51.220;5.308;2022-12-18T06:00:36;-5.80;99.90
41481;DHT22;27217;51.220;5.308;2022-12-18T06:03:05;-5.90;99.90
41481;DHT22;27217;51.220;5.308;2022-12-18T06:05:35;-5.80;99.90
41481;DHT22;27217;51.220;5.308;2022-12-18T06:08:02;-5.80;99.90
41481;DHT22;27217;51.220;5.308;2022-12-18T06:10:28;-5.80;99.90
41481;DHT22;27217;51.220;5.308;2022-12-18T06:12:54;-5.70;99.90
41481;DHT22;27217;51.220;5.308;2022-12-18T06:15:20;-5.60;99.90
41481;DHT22;27217;51.220;5.308;2022-12-18T06:17:47;-5.50;99.90
41481;DHT22;27217;51.220;5.308;2022-12-18T06:20:12;-5.70;99.90
41481;DHT22;27217;51.220;5.308;2022-12-18T06:22:38;-5.60;99.90
41481;DHT22;27217;51.220;5.308;2022-12-18T06:25:05;-5.70;99.90
41481;DHT22;27217;51.220;5.308;2022-12-18T06:27:33;-5.70;99.90
41481;DHT22;27217;51.220;5.308;2022-12-18T06:29:59;-5.70;99.90
41481;DHT22;27217;51.220;5.308;2022-12-18T06:32:25;-5.60;99.90
41481;DHT22;27217;51.220;5.308;2022-12-18T06:34:51;-5.60;99.90
41481;DHT22;27217;51.220;5.308;2022-12-18T06:37:19;-5.60;99.90
41481;DHT22;27217;51.220;5.308;2022-12-18T06:39:45;-5.60;99.90
41481;DHT22;27217;51.220;5.308;2022-12-18T06:42:11;-5.30;99.90
41481;DHT22;27217;51.220;5.308;2022-12-18T06:44:37;-5.50;99.90
41481;DHT22;27217;51.220;5.308;2022-12-18T06:47:03;-5.50;99.90
41481;DHT22;27217;51.220;5.308;2022-12-18T06:49:29;-5.40;99.90
41481;DHT22;27217;51.220;5.308;2022-12-18T06:51:54;-5.60;99.90
41481;DHT22;27217;51.220;5.308;2022-12-18T06:54:20;-5.60;99.90
41481;DHT22;27217;51.220;5.308;2022-12-18T06:56:46;-5.40;99.90
41481;DHT22;27217;51.220;5.308;2022-12-18T06:59:13;-5.30;99.90
41481;DHT22;27217;51.220;5.308;2022-12-18T07:01:40;-5.30;99.90
41481;DHT22;27217;51.220;5.308;2022-12-18T07:04:06;-5.40;99.90
41481;DHT22;27217;51.220;5.308;2022-12-18T07:06:32;-5.30;99.90
41481;DHT22;27217;51.220;5.308;2022-12-18T07:08:58;-5.20;99.90
41481;DHT22;27217;51.220;5.308;2022-12-18T07:11:24;-5.20;99.90
41481;DHT22;27217;51.220;5.308;2022-12-18T07:13:50;-5.30;99.90
41481;DHT22;27217;51.220;5.308;2022-12-18T07:16:20;-5.20;99.90
41481;DHT22;27217;51.220;5.308;2022-12-18T07:18:46;-5.20;99.90
41481;DHT22;27217;51.220;5.308;2022-12-18T07:21:15;-5.20;99.90
41481;DHT22;27217;51.220;5.308;2022-12-18T07:23:42;-5.20;99.90
41481;DHT22;27217;51.220;5.308;2022-12-18T07:26:10;-5.20;99.90
41481;DHT22;27217;51.220;5.308;2022-12-18T07:28:37;-5.10;99.90
41481;DHT22;27217;51.220;5.308;2022-12-18T07:31:05;-5.10;99.90
41481;DHT22;27217;51.220;5.308;2022-12-18T07:33:32;-5.10;99.90
41481;DHT22;27217;51.220;5.308;2022-12-18T07:36:06;-5.10;99.90
41481;DHT22;27217;51.220;5.308;2022-12-18T07:38:33;-5.10;99.90
41481;DHT22;27217;51.220;5.308;2022-12-18T07:41:08;-5.10;99.90
41481;DHT22;27217;51.220;5.308;2022-12-18T07:43:34;-5.10;99.90
41481;DHT22;27217;51.220;5.308;2022-12-18T07:46:01;-5.00;99.90
41481;DHT22;27217;51.220;5.308;2022-12-18T07:48:28;-5.20;99.90
41481;DHT22;27217;51.220;5.308;2022-12-18T07:50:57;-5.20;99.90
41481;DHT22;27217;51.220;5.308;2022-12-18T07:53:23;-5.20;99.90
41481;DHT22;27217;51.220;5.308;2022-12-18T07:55:48;-5.30;99.90
41481;DHT22;27217;51.220;5.308;2022-12-18T07:58:14;-5.20;99.90
41481;DHT22;27217;51.220;5.308;2022-12-18T08:00:40;-5.10;99.90
41481;DHT22;27217;51.220;5.308;2022-12-18T08:03:06;-5.10;99.90
41481;DHT22;27217;51.220;5.308;2022-12-18T08:05:32;-5.00;99.90
41481;DHT22;27217;51.220;5.308;2022-12-18T08:07:58;-5.00;99.90
41481;DHT22;27217;51.220;5.308;2022-12-18T08:10:24;-5.00;99.90
41481;DHT22;27217;51.220;5.308;2022-12-18T08:12:51;-4.90;99.90
41481;DHT22;27217;51.220;5.308;2022-12-18T08:15:17;-4.90;99.90
41481;DHT22;27217;51.220;5.308;2022-12-18T08:17:43;-4.90;99.90
41481;DHT22;27217;51.220;5.308;2022-12-18T08:20:09;-4.80;99.90
41481;DHT22;27217;51.220;5.308;2022-12-18T08:22:35;-4.70;99.90
41481;DHT22;27217;51.220;5.308;2022-12-18T08:25:02;-4.70;99.90
41481;DHT22;27217;51.220;5.308;2022-12-18T08:27:29;-4.60;99.90
41481;DHT22;27217;51.220;5.308;2022-12-18T08:29:55;-4.60;99.90
41481;DHT22;27217;51.220;5.308;2022-12-18T08:32:21;-4.60;99.90
41481;DHT22;27217;51.220;5.308;2022-12-18T08:34:47;-4.70;99.90
41481;DHT22;27217;51.220;5.308;2022-12-18T08:37:13;-4.60;99.90
41481;DHT22;27217;51.220;5.308;2022-12-18T08:39:39;-4.50;99.90
41481;DHT22;27217;51.220;5.308;2022-12-18T08:42:04;-4.40;99.90
41481;DHT22;27217;51.220;5.308;2022-12-18T08:44:51;-4.30;99.90
41481;DHT22;27217;51.220;5.308;2022-12-18T08:47:18;-4.40;99.90
41481;DHT22;27217;51.220;5.308;2022-12-18T08:49:44;-4.40;99.90
41481;DHT22;27217;51.220;5.308;2022-12-18T08:52:09;-4.50;99.90
41481;DHT22;27217;51.220;5.308;2022-12-18T08:54:35;-4.50;99.90
41481;DHT22;27217;51.220;5.308;2022-12-18T08:57:02;-4.30;99.90
41481;DHT22;27217;51.220;5.308;2022-12-18T08:59:28;-4.30;99.90
41481;DHT22;27217;51.220;5.308;2022-12-18T09:01:54;-4.20;99.90
41481;DHT22;27217;51.220;5.308;2022-12-18T09:04:20;-3.90;99.90
41481;DHT22;27217;51.220;5.308;2022-12-18T09:06:46;-3.80;99.90
41481;DHT22;27217;51.220;5.308;2022-12-18T09:09:12;-3.60;99.90
41481;DHT22;27217;51.220;5.308;2022-12-18T09:11:41;-3.70;99.90
41481;DHT22;27217;51.220;5.308;2022-12-18T09:14:08;-3.60;99.90
41481;DHT22;27217;51.220;5.308;2022-12-18T09:16:35;-3.50;99.90
41481;DHT22;27217;51.220;5.308;2022-12-18T09:19:03;-3.40;99.90
41481;DHT22;27217;51.220;5.308;2022-12-18T09:21:33;-3.40;99.90
41481;DHT22;27217;51.220;5.308;2022-12-18T09:23:59;-3.50;99.90
41481;DHT22;27217;51.220;5.308;2022-12-18T09:26:26;-3.50;99.90
41481;DHT22;27217;51.220;5.308;2022-12-18T09:28:52;-3.60;99.90
41481;DHT22;27217;51.220;5.308;2022-12-18T09:31:20;-3.40;99.90
41481;DHT22;27217;51.220;5.308;2022-12-18T09:33:47;-3.30;99.90
41481;DHT22;27217;51.220;5.308;2022-12-18T09:36:15;-3.20;99.90
41481;DHT22;27217;51.220;5.308;2022-12-18T09:38:41;-3.10;99.90
41481;DHT22;27217;51.220;5.308;2022-12-18T09:44:30;-3.00;99.90
41481;DHT22;27217;51.220;5.308;2022-12-18T09:47:14;-2.90;99.90
41481;DHT22;27217;51.220;5.308;2022-12-18T09:49:48;-2.60;99.90
41481;DHT22;27217;51.220;5.308;2022-12-18T09:55:01;-2.40;99.90
41481;DHT22;27217;51.220;5.308;2022-12-18T09:57:29;-2.50;99.90
41481;DHT22;27217;51.220;5.308;2022-12-18T10:00:08;-2.50;99.90
41481;DHT22;27217;51.220;5.308;2022-12-18T10:02:34;-2.40;99.90
41481;DHT22;27217;51.220;5.308;2022-12-18T10:10:47;-2.30;99.90
41481;DHT22;27217;51.220;5.308;2022-12-18T10:16:39;-2.20;99.90
41481;DHT22;27217;51.220;5.308;2022-12-18T10:27:32;-1.90;99.90
41481;DHT22;27217;51.220;5.308;2022-12-18T10:29:59;-1.90;99.90
41481;DHT22;27217;51.220;5.308;2022-12-18T10:32:29;-1.70;99.90
41481;DHT22;27217;51.220;5.308;2022-12-18T10:34:57;-1.60;99.90
41481;DHT22;27217;51.220;5.308;2022-12-18T10:37:27;-1.70;99.90
41481;DHT22;27217;51.220;5.308;2022-12-18T10:40:08;-1.70;99.90
41481;DHT22;27217;51.220;5.308;2022-12-18T10:42:35;-1.50;99.90
41481;DHT22;27217;51.220;5.308;2022-12-18T10:45:12;-1.60;99.90
41481;DHT22;27217;51.220;5.308;2022-12-18T10:47:47;-1.60;99.90
41481;DHT22;27217;51.220;5.308;2022-12-18T10:50:40;-1.70;99.90
41481;DHT22;27217;51.220;5.308;2022-12-18T10:53:05;-1.70;99.90
41481;DHT22;27217;51.220;5.308;2022-12-18T10:55:37;-1.60;99.90
41481;DHT22;27217;51.220;5.308;2022-12-18T11:01:07;-1.40;99.90
41481;DHT22;27217;51.220;5.308;2022-12-18T11:03:46;-1.40;99.90
41481;DHT22;27217;51.220;5.308;2022-12-18T11:06:17;-1.40;99.90
41481;DHT22;27217;51.220;5.308;2022-12-18T11:08:56;-1.30;99.90
41481;DHT22;27217;51.220;5.308;2022-12-18T11:11:24;-1.30;99.90
41481;DHT22;27217;51.220;5.308;2022-12-18T11:14:05;-1.40;99.90
41481;DHT22;27217;51.220;5.308;2022-12-18T11:16:42;-1.10;99.90
41481;DHT22;27217;51.220;5.308;2022-12-18T11:21:47;-0.80;99.90
41481;DHT22;27217;51.220;5.308;2022-12-18T11:24:27;-0.70;99.90
41481;DHT22;27217;51.220;5.308;2022-12-18T11:26:56;-0.80;99.90
41481;DHT22;27217;51.220;5.308;2022-12-18T11:29:27;-0.70;99.90
41481;DHT22;27217;51.220;5.308;2022-12-18T11:34:42;-0.90;99.90
41481;DHT22;27217;51.220;5.308;2022-12-18T11:37:13;-0.80;99.90
41481;DHT22;27217;51.220;5.308;2022-12-18T11:39:49;-0.90;99.90
41481;DHT22;27217;51.220;5.308;2022-12-18T11:42:18;-0.90;99.90
41481;DHT22;27217;51.220;5.308;2022-12-18T11:50:21;-0.50;99.90
41481;DHT22;27217;51.220;5.308;2022-12-18T11:52:48;-0.20;99.90
41481;DHT22;27217;51.220;5.308;2022-12-18T11:58:28;-0.10;99.90
41481;DHT22;27217;51.220;5.308;2022-12-18T12:06:36;-0.10;99.90
41481;DHT22;27217;51.220;5.308;2022-12-18T12:16:58;0.30;99.90
41481;DHT22;27217;51.220;5.308;2022-12-18T12:22:18;0.30;99.90
41481;DHT22;27217;51.220;5.308;2022-12-18T12:38:57;0.20;99.90
41481;DHT22;27217;51.220;5.308;2022-12-18T12:41:30;0.10;99.90
41481;DHT22;27217;51.220;5.308;2022-12-18T12:44:24;0.10;99.90
41481;DHT22;27217;51.220;5.308;2022-12-18T12:46:52;0.30;99.90
41481;DHT22;27217;51.220;5.308;2022-12-18T12:49:21;0.30;99.90
41481;DHT22;27217;51.220;5.308;2022-12-18T12:51:56;0.20;99.90
41481;DHT22;27217;51.220;5.308;2022-12-18T12:54:28;0.20;99.90
41481;DHT22;27217;51.220;5.308;2022-12-18T12:56:57;0.30;99.90
41481;DHT22;27217;51.220;5.308;2022-12-18T13:02:33;0.50;99.90
41481;DHT22;27217;51.220;5.308;2022-12-18T13:07:55;0.30;99.90
41481;DHT22;27217;51.220;5.308;2022-12-18T13:10:28;0.60;99.90
41481;DHT22;27217;51.220;5.308;2022-12-18T13:13:11;0.70;99.90
41481;DHT22;27217;51.220;5.308;2022-12-18T13:15:46;0.60;99.90
41481;DHT22;27217;51.220;5.308;2022-12-18T13:18:22;0.80;99.90
41481;DHT22;27217;51.220;5.308;2022-12-18T13:20:51;0.90;99.90
41481;DHT22;27217;51.220;5.308;2022-12-18T13:23:35;0.90;99.90
41481;DHT22;27217;51.220;5.308;2022-12-18T13:36:48;1.10;99.90
41481;DHT22;27217;51.220;5.308;2022-12-18T13:41:40;1.30;99.90
41481;DHT22;27217;51.220;5.308;2022-12-18T13:44:24;1.20;99.90
41481;DHT22;27217;51.220;5.308;2022-12-18T13:46:51;1.00;99.90
41481;DHT22;27217;51.220;5.308;2022-12-18T13:49:20;1.10;99.90
41481;DHT22;27217;51.220;5.308;2022-12-18T13:51:49;1.20;99.90
41481;DHT22;27217;51.220;5.308;2022-12-18T13:54:32;1.20;99.90
41481;DHT22;27217;51.220;5.308;2022-12-18T13:56:59;1.10;99.90
41481;DHT22;27217;51.220;5.308;2022-12-18T13:59:39;1.10;99.90
41481;DHT22;27217;51.220;5.308;2022-12-18T14:02:17;0.80;99.90
41481;DHT22;27217;51.220;5.308;2022-12-18T14:04:48;0.90;99.90
41481;DHT22;27217;51.220;5.308;2022-12-18T14:07:23;1.00;99.90
41481;DHT22;27217;51.220;5.308;2022-12-18T14:09:57;0.90;99.90
41481;DHT22;27217;51.220;5.308;2022-12-18T14:12:28;0.90;99.90
41481;DHT22;27217;51.220;5.308;2022-12-18T14:15:49;0.90;99.90
41481;DHT22;27217;51.220;5.308;2022-12-18T14:18:30;0.90;99.90
41481;DHT22;27217;51.220;5.308;2022-12-18T14:21:04;0.90;99.90
41481;DHT22;27217;51.220;5.308;2022-12-18T14:23:39;0.70;99.90
41481;DHT22;27217;51.220;5.308;2022-12-18T14:26:28;0.80;99.90
41481;DHT22;27217;51.220;5.308;2022-12-18T14:29:00;0.90;99.90
41481;DHT22;27217;51.220;5.308;2022-12-18T14:31:31;0.90;99.90
41481;DHT22;27217;51.220;5.308;2022-12-18T14:33:57;1.10;99.90
41481;DHT22;27217;51.220;5.308;2022-12-18T14:36:29;1.20;99.90
41481;DHT22;27217;51.220;5.308;2022-12-18T14:38:56;1.20;99.90
41481;DHT22;27217;51.220;5.308;2022-12-18T14:41:26;1.20;99.90
41481;DHT22;27217;51.220;5.308;2022-12-18T14:44:04;1.10;99.90
41481;DHT22;27217;51.220;5.308;2022-12-18T14:46:34;1.10;99.90
41481;DHT22;27217;51.220;5.308;2022-12-18T14:49:04;1.30;99.90
41481;DHT22;27217;51.220;5.308;2022-12-18T14:51:33;1.30;99.90
41481;DHT22;27217;51.220;5.308;2022-12-18T14:54:01;1.20;99.90
41481;DHT22;27217;51.220;5.308;2022-12-18T14:56:33;1.00;99.90
41481;DHT22;27217;51.220;5.308;2022-12-18T14:59:04;0.90;99.90
41481;DHT22;27217;51.220;5.308;2022-12-18T15:01:44;0.90;99.90
41481;DHT22;27217;51.220;5.308;2022-12-18T15:04:32;0.90;99.90
41481;DHT22;27217;51.220;5.308;2022-12-18T15:07:15;0.70;99.90
41481;DHT22;27217;51.220;5.308;2022-12-18T15:09:43;0.90;99.90
41481;DHT22;27217;51.220;5.308;2022-12-18T15:12:33;0.90;99.90
41481;DHT22;27217;51.220;5.308;2022-12-18T15:14:59;0.90;99.90
41481;DHT22;27217;51.220;5.308;2022-12-18T15:17:24;0.60;99.90
41481;DHT22;27217;51.220;5.308;2022-12-18T15:20:00;0.60;99.90
41481;DHT22;27217;51.220;5.308;2022-12-18T15:22:34;0.50;99.90
41481;DHT22;27217;51.220;5.308;2022-12-18T15:25:01;0.80;99.90
41481;DHT22;27217;51.220;5.308;2022-12-18T15:27:33;0.80;99.90
41481;DHT22;27217;51.220;5.308;2022-12-18T15:30:17;1.00;99.90
41481;DHT22;27217;51.220;5.308;2022-12-18T15:32:44;0.90;99.90
41481;DHT22;27217;51.220;5.308;2022-12-18T15:35:15;0.90;99.90
41481;DHT22;27217;51.220;5.308;2022-12-18T15:37:42;0.90;99.90
41481;DHT22;27217;51.220;5.308;2022-12-18T15:40:21;0.90;99.90
41481;DHT22;27217;51.220;5.308;2022-12-18T15:42:53;0.80;99.90
41481;DHT22;27217;51.220;5.308;2022-12-18T15:45:38;0.80;99.90
41481;DHT22;27217;51.220;5.308;2022-12-18T15:48:20;0.60;99.90
41481;DHT22;27217;51.220;5.308;2022-12-18T15:50:46;0.70;99.90
41481;DHT22;27217;51.220;5.308;2022-12-18T15:53:13;0.90;99.90
41481;DHT22;27217;51.220;5.308;2022-12-18T15:55:38;0.80;99.90
41481;DHT22;27217;51.220;5.308;2022-12-18T15:58:23;0.70;99.90
41481;DHT22;27217;51.220;5.308;2022-12-18T16:00:49;0.70;99.90
41481;DHT22;27217;51.220;5.308;2022-12-18T16:03:15;0.80;99.90
41481;DHT22;27217;51.220;5.308;2022-12-18T16:05:41;0.80;99.90
41481;DHT22;27217;51.220;5.308;2022-12-18T16:08:07;0.70;99.90
41481;DHT22;27217;51.220;5.308;2022-12-18T16:10:33;0.60;99.90
41481;DHT22;27217;51.220;5.308;2022-12-18T16:13:00;0.70;99.90
41481;DHT22;27217;51.220;5.308;2022-12-18T16:15:26;0.70;99.90
41481;DHT22;27217;51.220;5.308;2022-12-18T16:17:52;0.90;99.90
41481;DHT22;27217;51.220;5.308;2022-12-18T16:20:20;0.80;99.90
41481;DHT22;27217;51.220;5.308;2022-12-18T16:22:47;0.80;99.90
41481;DHT22;27217;51.220;5.308;2022-12-18T16:25:26;0.70;99.90
41481;DHT22;27217;51.220;5.308;2022-12-18T16:27:53;0.90;99.90
41481;DHT22;27217;51.220;5.308;2022-12-18T16:30:28;0.90;99.90
41481;DHT22;27217;51.220;5.308;2022-12-18T16:32:58;1.00;99.90
41481;DHT22;27217;51.220;5.308;2022-12-18T16:35:25;1.00;99.90
41481;DHT22;27217;51.220;5.308;2022-12-18T16:37:51;0.90;99.90
41481;DHT22;27217;51.220;5.308;2022-12-18T16:40:17;0.90;99.90
41481;DHT22;27217;51.220;5.308;2022-12-18T16:42:45;1.00;99.90
41481;DHT22;27217;51.220;5.308;2022-12-18T16:45:14;1.00;99.90
41481;DHT22;27217;51.220;5.308;2022-12-18T16:47:40;1.00;99.90
41481;DHT22;27217;51.220;5.308;2022-12-18T16:50:07;1.10;99.90
41481;DHT22;27217;51.220;5.308;2022-12-18T16:52:33;1.00;99.90
41481;DHT22;27217;51.220;5.308;2022-12-18T16:54:59;1.10;99.90
41481;DHT22;27217;51.220;5.308;2022-12-18T16:57:25;1.40;99.90
41481;DHT22;27217;51.220;5.308;2022-12-18T16:59:51;1.30;99.90
41481;DHT22;27217;51.220;5.308;2022-12-18T17:02:20;1.30;99.90
41481;DHT22;27217;51.220;5.308;2022-12-18T17:04:46;1.40;99.90
41481;DHT22;27217;51.220;5.308;2022-12-18T17:07:13;1.40;99.90
41481;DHT22;27217;51.220;5.308;2022-12-18T17:09:40;1.40;99.90
41481;DHT22;27217;51.220;5.308;2022-12-18T17:12:07;1.50;99.90
41481;DHT22;27217;51.220;5.308;2022-12-18T17:14:33;1.30;99.90
41481;DHT22;27217;51.220;5.308;2022-12-18T17:16:59;1.40;99.90
41481;DHT22;27217;51.220;5.308;2022-12-18T17:19:27;1.40;99.90
41481;DHT22;27217;51.220;5.308;2022-12-18T17:21:53;1.40;99.90
41481;DHT22;27217;51.220;5.308;2022-12-18T17:24:20;1.50;99.90
41481;DHT22;27217;51.220;5.308;2022-12-18T17:26:46;1.40;99.90
41481;DHT22;27217;51.220;5.308;2022-12-18T17:29:15;1.50;99.90
41481;DHT22;27217;51.220;5.308;2022-12-18T17:31:42;1.50;99.90
41481;DHT22;27217;51.220;5.308;2022-12-18T17:34:09;1.80;99.90
41481;DHT22;27217;51.220;5.308;2022-12-18T17:36:35;1.70;99.90
41481;DHT22;27217;51.220;5.308;2022-12-18T17:39:02;1.70;99.90
41481;DHT22;27217;51.220;5.308;2022-12-18T17:41:29;1.60;99.90
41481;DHT22;27217;51.220;5.308;2022-12-18T17:44:02;1.70;99.90